Time;durP1;ratioP1;P1;durP2;ratioP2;P2;SDS_P1;SDS_P2;PMS_P1;PMS_P2;Temp;Humidity;BMP_temperature;BMP_pressure;BME280_temperature;BME280_humidity;BME280_pressure;Samples;Min_cycle;Max_cycle;Signal;HPM_P1;HPM_P2
2022/01/23 06:00:12;;;;;;;21.27;16.80;;;6.10;97.20;;;;;;1734859;28;20230;-79
2022/01/23 06:01:03;;;;;;;23.13;17.40;;;6.10;97.20;;;;;;1734120;28;20643;-79
2022/01/23 06:01:55;;;;;;;20.38;17.10;;;6.10;97.20;;;;;;1734678;28;20203;-80
2022/01/23 06:02:46;;;;;;;22.90;17.23;;;6.10;97.20;;;;;;1734823;28;20196;-79
2022/01/23 06:03:38;;;;;;;22.40;18.17;;;6.10;97.20;;;;;;1728523;28;20192;-79
2022/01/23 06:04:28;;;;;;;21.00;15.57;;;6.10;97.20;;;;;;1727945;28;20223;-81
2022/01/23 06:05:20;;;;;;;22.30;16.40;;;6.10;97.20;;;;;;1727927;28;20205;-79
2022/01/23 06:06:11;;;;;;;17.88;14.82;;;6.10;97.20;;;;;;1728117;28;20236;-79
2022/01/23 06:07:03;;;;;;;16.63;14.83;;;6.10;97.20;;;;;;1728029;28;20200;-81
2022/01/23 06:07:54;;;;;;;16.65;14.80;;;6.10;97.20;;;;;;1727744;28;20211;-80
2022/01/23 06:08:46;;;;;;;16.20;14.50;;;6.20;97.20;;;;;;1727872;28;20208;-80
2022/01/23 06:09:39;;;;;;;16.13;14.52;;;6.20;97.20;;;;;;1727983;28;20585;-80
2022/01/23 06:10:46;;;;;;;15.98;13.55;;;6.20;97.20;;;;;;1727782;28;20228;-80
2022/01/23 06:11:37;;;;;;;15.18;13.55;;;6.20;97.20;;;;;;1727824;28;20339;-80
2022/01/23 06:12:28;;;;;;;16.10;14.40;;;6.20;97.20;;;;;;1727963;28;20277;-79
2022/01/23 06:13:19;;;;;;;14.90;13.30;;;6.30;97.20;;;;;;1728107;28;20211;-79
2022/01/23 06:14:11;;;;;;;15.35;13.68;;;6.30;97.20;;;;;;1727943;28;20549;-81
2022/01/23 06:15:02;;;;;;;16.48;14.35;;;6.30;97.20;;;;;;1727949;28;20287;-80
2022/01/23 06:15:56;;;;;;;15.50;13.93;;;6.20;97.20;;;;;;1727850;28;20200;-79
2022/01/23 06:16:47;;;;;;;17.50;14.60;;;6.30;97.20;;;;;;1730317;28;20227;-80
2022/01/23 06:17:39;;;;;;;15.48;13.85;;;6.30;97.20;;;;;;1734386;28;20258;-79
2022/01/23 06:18:30;;;;;;;16.52;14.82;;;6.30;97.20;;;;;;1734594;28;20200;-79
2022/01/23 06:19:21;;;;;;;15.80;13.20;;;6.30;97.20;;;;;;1734535;28;20199;-81
2022/01/23 06:20:14;;;;;;;15.85;14.15;;;6.30;97.20;;;;;;1734689;28;20218;-80
2022/01/23 06:21:07;;;;;;;16.50;14.80;;;6.20;97.20;;;;;;1734506;28;20222;-80
2022/01/23 06:21:57;;;;;;;16.60;14.00;;;6.30;97.20;;;;;;1734658;28;20231;-80
2022/01/23 06:22:49;;;;;;;17.00;14.47;;;6.30;97.20;;;;;;1734551;28;20194;-80
2022/01/23 06:23:40;;;;;;;17.10;15.27;;;6.30;97.20;;;;;;1734591;28;20203;-79
2022/01/23 06:24:32;;;;;;;20.27;16.30;;;6.30;97.20;;;;;;1734520;28;20282;-80
2022/01/23 06:25:32;;;;;;;17.92;15.40;;;6.30;97.20;;;;;;1734649;28;20579;-81
2022/01/23 06:26:26;;;;;;;18.00;15.30;;;6.30;97.20;;;;;;1734629;28;20591;-80
2022/01/23 06:27:17;;;;;;;17.35;14.88;;;6.30;97.20;;;;;;1734881;28;20251;-80
2022/01/23 06:28:08;;;;;;;17.17;14.63;;;6.30;97.20;;;;;;1734320;28;20204;-81
2022/01/23 06:29:05;;;;;;;16.08;14.27;;;6.30;97.20;;;;;;1734492;28;20204;-81
2022/01/23 06:29:55;;;;;;;20.27;16.65;;;6.30;97.20;;;;;;1734748;28;20212;-80
2022/01/23 06:30:47;;;;;;;22.30;14.90;;;6.30;97.20;;;;;;1734760;28;20211;-80
2022/01/23 06:31:40;;;;;;;15.52;13.38;;;6.30;97.20;;;;;;1734558;28;20478;-80
2022/01/23 06:32:31;;;;;;;17.33;14.40;;;6.30;97.20;;;;;;1733262;28;20228;-80
2022/01/23 06:33:22;;;;;;;18.45;15.68;;;6.30;97.20;;;;;;1734515;28;20215;-79
2022/01/23 06:34:15;;;;;;;16.27;14.43;;;6.30;97.20;;;;;;1734629;28;20202;-80
2022/01/23 06:35:07;;;;;;;18.35;16.35;;;6.20;97.20;;;;;;1734669;28;20242;-80
2022/01/23 06:35:58;;;;;;;17.23;15.43;;;6.20;97.20;;;;;;1734506;28;20258;-80
2022/01/23 06:36:52;;;;;;;17.95;16.05;;;6.10;97.20;;;;;;1734589;28;20200;-81
2022/01/23 06:37:43;;;;;;;19.83;17.73;;;6.10;97.20;;;;;;1734369;28;20616;-80
2022/01/23 06:38:35;;;;;;;20.75;17.75;;;6.10;97.20;;;;;;1735307;28;20705;-80
2022/01/23 06:39:28;;;;;;;21.05;18.27;;;6.10;97.20;;;;;;1735172;28;20208;-80
2022/01/23 06:40:19;;;;;;;21.38;18.02;;;6.10;97.20;;;;;;1734981;28;20215;-81
2022/01/23 06:41:10;;;;;;;20.03;18.03;;;6.10;97.20;;;;;;1735172;28;20691;-81
2022/01/23 06:42:01;;;;;;;20.42;18.33;;;6.20;97.20;;;;;;1734813;28;20442;-81
2022/01/23 06:42:53;;;;;;;18.57;16.63;;;6.10;97.20;;;;;;1734901;28;20196;-79
2022/01/23 06:43:44;;;;;;;20.05;17.50;;;6.10;97.20;;;;;;1735157;28;20493;-80
2022/01/23 06:44:36;;;;;;;19.80;17.20;;;6.10;97.20;;;;;;1734782;28;20211;-80
2022/01/23 06:45:27;;;;;;;20.92;18.30;;;6.10;97.20;;;;;;1735312;28;20207;-80
2022/01/23 06:46:18;;;;;;;21.00;18.90;;;6.10;97.20;;;;;;1734945;28;20282;-80
2022/01/23 06:47:10;;;;;;;21.48;19.17;;;6.10;97.20;;;;;;1734192;28;20689;-81
2022/01/23 06:48:02;;;;;;;21.98;19.05;;;6.10;97.20;;;;;;1727673;28;20204;-80
2022/01/23 06:48:53;;;;;;;21.98;18.48;;;6.10;97.20;;;;;;1728378;28;20240;-80
2022/01/23 06:49:45;;;;;;;19.87;17.70;;;6.10;97.20;;;;;;1728797;28;20204;-80
2022/01/23 06:50:35;;;;;;;20.38;18.20;;;6.10;97.20;;;;;;1727812;28;20220;-80
2022/01/23 06:51:27;;;;;;;19.70;17.70;;;6.10;97.20;;;;;;1727900;28;20214;-80
2022/01/23 06:52:18;;;;;;;20.40;18.30;;;6.10;97.20;;;;;;1727851;28;20502;-80
2022/01/23 06:53:10;;;;;;;18.90;16.17;;;6.20;97.20;;;;;;1728002;28;20220;-80
2022/01/23 06:54:01;;;;;;;19.25;17.25;;;6.20;97.20;;;;;;1727865;28;20505;-79
2022/01/23 06:54:52;;;;;;;20.67;18.43;;;6.20;97.20;;;;;;1727850;28;20192;-80
2022/01/23 06:55:43;;;;;;;19.75;17.58;;;6.20;97.20;;;;;;1727823;28;20451;-80
2022/01/23 06:56:35;;;;;;;22.53;20.10;;;6.20;97.20;;;;;;1728097;28;20205;-80
2022/01/23 06:57:26;;;;;;;20.88;18.58;;;6.30;97.20;;;;;;1728061;28;20235;-81
2022/01/23 06:58:18;;;;;;;20.97;18.70;;;6.20;97.20;;;;;;1727721;28;20659;-80
2022/01/23 06:59:09;;;;;;;21.20;18.10;;;6.30;97.20;;;;;;1727936;28;20205;-81
2022/01/23 07:00:01;;;;;;;20.67;18.13;;;6.20;97.20;;;;;;1727711;28;20196;-81
2022/01/23 07:00:52;;;;;;;20.02;17.30;;;6.20;97.20;;;;;;1726661;28;20263;-80
2022/01/23 07:01:43;;;;;;;20.43;18.17;;;6.20;97.20;;;;;;1727701;28;20204;-81
2022/01/23 07:02:35;;;;;;;18.52;16.52;;;6.20;97.20;;;;;;1727906;28;20205;-80
2022/01/23 07:03:27;;;;;;;20.48;17.05;;;6.20;97.20;;;;;;1727808;28;20204;-81
2022/01/23 07:04:18;;;;;;;18.27;16.38;;;6.20;97.20;;;;;;1727722;28;20224;-81
2022/01/23 07:05:10;;;;;;;18.07;16.17;;;6.20;97.20;;;;;;1727758;28;20192;-79
2022/01/23 07:06:01;;;;;;;19.50;17.40;;;6.20;97.20;;;;;;1727662;28;20212;-80
2022/01/23 07:06:52;;;;;;;18.03;15.50;;;6.10;97.20;;;;;;1727840;28;20276;-80
2022/01/23 07:07:43;;;;;;;18.48;16.42;;;6.10;97.20;;;;;;1727727;28;20451;-79
2022/01/23 07:08:35;;;;;;;19.17;17.07;;;6.10;97.20;;;;;;1727803;28;20210;-81
2022/01/23 07:09:25;;;;;;;18.20;16.27;;;6.10;97.20;;;;;;1727778;28;20579;-80
2022/01/23 07:10:19;;;;;;;17.20;15.40;;;6.10;97.20;;;;;;1727812;28;20205;-81
2022/01/23 07:11:09;;;;;;;17.92;15.95;;;6.10;97.20;;;;;;1727787;28;20795;-80
2022/01/23 07:12:01;;;;;;;16.93;15.20;;;6.00;97.20;;;;;;1727747;28;20619;-80
2022/01/23 07:12:52;;;;;;;16.60;14.30;;;6.10;97.20;;;;;;1727724;28;20204;-80
2022/01/23 07:13:43;;;;;;;16.50;14.70;;;6.10;97.20;;;;;;1727674;28;20207;-80
2022/01/23 07:14:34;;;;;;;17.17;14.65;;;6.10;97.20;;;;;;1727932;28;20243;-81
2022/01/23 07:15:26;;;;;;;15.70;14.00;;;6.10;97.20;;;;;;1727672;28;20208;-80
2022/01/23 07:16:17;;;;;;;15.57;13.90;;;6.10;97.20;;;;;;1727761;28;20212;-80
2022/01/23 07:17:09;;;;;;;15.83;14.13;;;6.00;97.20;;;;;;1728560;28;20279;-81
2022/01/23 07:18:01;;;;;;;17.02;14.60;;;6.00;97.20;;;;;;1727589;28;20447;-80
2022/01/23 07:18:52;;;;;;;19.48;15.00;;;6.00;97.20;;;;;;1727777;28;20649;-80
2022/01/23 07:19:43;;;;;;;17.05;15.25;;;6.00;97.20;;;;;;1727905;28;20213;-80
2022/01/23 07:20:35;;;;;;;16.50;14.80;;;6.00;97.20;;;;;;1727653;28;20231;-80
2022/01/23 07:21:26;;;;;;;15.85;14.25;;;6.10;97.20;;;;;;1727891;28;20247;-80
2022/01/23 07:22:18;;;;;;;16.57;14.40;;;6.10;97.20;;;;;;1727733;28;20200;-81
2022/01/23 07:23:09;;;;;;;16.10;14.35;;;6.10;97.20;;;;;;1727838;28;20193;-80
2022/01/23 07:24:00;;;;;;;16.73;14.93;;;6.10;97.20;;;;;;1727582;28;20192;-81
2022/01/23 07:24:51;;;;;;;16.35;14.55;;;6.10;97.20;;;;;;1727893;28;20212;-80
2022/01/23 07:25:43;;;;;;;15.93;14.33;;;6.10;97.20;;;;;;1727754;28;20287;-80
2022/01/23 07:26:35;;;;;;;17.13;14.88;;;6.10;97.20;;;;;;1727878;28;20201;-80
2022/01/23 07:27:29;;;;;;;15.43;13.80;;;6.10;97.20;;;;;;1727691;28;20777;-80
2022/01/23 07:28:23;;;;;;;16.38;14.27;;;6.10;97.20;;;;;;1727379;28;20208;-80
2022/01/23 07:29:16;;;;;;;16.77;15.05;;;6.10;97.20;;;;;;1728242;28;20255;-80
2022/01/23 07:30:20;;;;;;;16.70;15.00;;;6.20;97.20;;;;;;1729078;28;20215;-80
2022/01/23 07:31:20;;;;;;;16.60;13.95;;;6.20;97.20;;;;;;1728948;28;20598;-81
2022/01/23 07:32:11;;;;;;;15.65;14.00;;;6.20;97.20;;;;;;1729046;28;20205;-80
2022/01/23 07:33:04;;;;;;;16.87;15.07;;;6.10;97.20;;;;;;1729839;28;20275;-78
2022/01/23 07:33:55;;;;;;;16.85;15.05;;;6.10;97.20;;;;;;1728921;28;20455;-81
2022/01/23 07:34:46;;;;;;;15.30;13.70;;;6.20;97.20;;;;;;1728788;28;20211;-80
2022/01/23 07:35:37;;;;;;;16.38;14.68;;;6.20;97.20;;;;;;1728973;28;20231;-80
2022/01/23 07:36:29;;;;;;;16.67;14.40;;;6.20;97.20;;;;;;1728781;28;20211;-79
2022/01/23 07:37:20;;;;;;;16.58;14.68;;;6.20;97.20;;;;;;1728790;28;20208;-81
2022/01/23 07:38:16;;;;;;;17.47;15.30;;;6.20;97.20;;;;;;1728655;28;20207;-80
2022/01/23 07:39:07;;;;;;;17.25;15.50;;;6.30;97.20;;;;;;1728905;28;20244;-80
2022/01/23 07:39:59;;;;;;;15.93;14.30;;;6.30;97.20;;;;;;1728741;28;20204;-80
2022/01/23 07:40:49;;;;;;;18.25;16.00;;;6.30;97.20;;;;;;1728702;28;20471;-80
2022/01/23 07:41:41;;;;;;;16.97;15.17;;;6.30;97.20;;;;;;1728810;28;20671;-79
2022/01/23 07:42:32;;;;;;;17.80;15.98;;;6.30;97.20;;;;;;1728773;28;20205;-81
2022/01/23 07:43:23;;;;;;;15.33;13.70;;;6.30;97.20;;;;;;1728810;28;20201;-80
2022/01/23 07:44:15;;;;;;;16.65;14.27;;;6.30;97.20;;;;;;1728869;28;20235;-79
2022/01/23 07:45:08;;;;;;;16.67;14.80;;;6.30;97.20;;;;;;1728755;28;20201;-80
2022/01/23 07:45:58;;;;;;;15.80;14.20;;;6.20;97.20;;;;;;1728707;28;20236;-80
2022/01/23 07:46:51;;;;;;;15.03;13.53;;;6.20;97.20;;;;;;1728843;28;20204;-80
2022/01/23 07:47:43;;;;;;;15.95;14.35;;;6.20;97.20;;;;;;1728665;28;20219;-80
2022/01/23 07:48:36;;;;;;;16.00;14.25;;;6.10;97.20;;;;;;1728833;28;20263;-81
2022/01/23 07:49:27;;;;;;;17.05;14.63;;;6.10;97.20;;;;;;1733347;28;20207;-79
2022/01/23 07:50:18;;;;;;;16.48;14.23;;;6.20;97.20;;;;;;1735544;28;20211;-80
2022/01/23 07:51:10;;;;;;;15.30;13.70;;;6.20;97.20;;;;;;1735454;28;20196;-81
2022/01/23 07:52:02;;;;;;;17.38;15.35;;;6.20;97.20;;;;;;1735616;28;20207;-79
2022/01/23 07:52:54;;;;;;;17.08;15.20;;;6.20;97.20;;;;;;1735648;28;20200;-79
2022/01/23 07:53:45;;;;;;;16.33;14.55;;;6.30;97.20;;;;;;1735521;28;20293;-80
2022/01/23 07:54:38;;;;;;;16.17;14.47;;;6.30;97.20;;;;;;1735506;28;20203;-80
2022/01/23 07:55:29;;;;;;;17.95;16.05;;;6.30;97.20;;;;;;1735515;28;20683;-80
2022/01/23 07:56:21;;;;;;;18.07;15.23;;;6.30;97.20;;;;;;1735645;28;20540;-80
2022/01/23 07:57:12;;;;;;;16.13;14.40;;;6.20;97.20;;;;;;1735564;28;20933;-80
2022/01/23 07:58:10;;;;;;;15.90;14.20;;;6.20;97.20;;;;;;1735086;28;20693;-81
2022/01/23 07:59:01;;;;;;;16.33;14.63;;;6.20;97.20;;;;;;1735526;28;20200;-80
2022/01/23 07:59:53;;;;;;;16.30;14.60;;;6.20;97.20;;;;;;1735507;28;20278;-80
2022/01/23 08:00:44;;;;;;;16.60;14.85;;;6.30;97.20;;;;;;1734759;28;20232;-80
2022/01/23 08:01:38;;;;;;;16.43;14.63;;;6.30;97.20;;;;;;1735535;28;20484;-81
2022/01/23 08:02:30;;;;;;;16.52;14.52;;;6.30;97.20;;;;;;1735667;28;20663;-80
2022/01/23 08:03:22;;;;;;;18.13;16.17;;;6.30;97.20;;;;;;1735598;28;20275;-81
2022/01/23 08:04:14;;;;;;;16.10;14.40;;;6.40;97.20;;;;;;1735844;28;20200;-80
2022/01/23 08:05:09;;;;;;;17.10;15.30;;;6.40;97.20;;;;;;1734687;28;20204;-80
2022/01/23 08:06:00;;;;;;;17.85;15.05;;;6.40;97.20;;;;;;1729710;28;20200;-80
2022/01/23 08:07:07;;;;;;;17.07;15.27;;;6.30;97.20;;;;;;1728672;28;20283;-81
2022/01/23 08:07:58;;;;;;;16.75;14.60;;;6.40;97.20;;;;;;1728559;28;20479;-80
2022/01/23 08:08:49;;;;;;;18.02;15.77;;;6.30;97.20;;;;;;1728734;28;20201;-80
2022/01/23 08:09:40;;;;;;;17.23;15.38;;;6.30;97.20;;;;;;1728696;28;20683;-80
2022/01/23 08:10:32;;;;;;;16.57;14.80;;;6.30;97.20;;;;;;1728574;28;20614;-80
2022/01/23 08:11:23;;;;;;;17.65;15.80;;;6.30;97.20;;;;;;1728745;28;20232;-80
2022/01/23 08:12:17;;;;;;;18.53;16.27;;;6.40;97.20;;;;;;1728905;28;20200;-80
2022/01/23 08:13:08;;;;;;;17.35;15.52;;;6.30;97.20;;;;;;1728512;28;20452;-80
2022/01/23 08:13:59;;;;;;;18.52;16.52;;;6.40;97.20;;;;;;1728580;28;20286;-80
2022/01/23 08:14:51;;;;;;;18.87;16.60;;;6.40;97.20;;;;;;1728892;28;20651;-80
2022/01/23 08:15:43;;;;;;;19.23;17.13;;;6.40;97.20;;;;;;1728733;28;20204;-80
2022/01/23 08:16:35;;;;;;;18.88;16.83;;;6.40;97.20;;;;;;1728651;28;20211;-79
2022/01/23 08:17:27;;;;;;;20.45;18.35;;;6.40;97.20;;;;;;1728555;28;20205;-80
2022/01/23 08:18:19;;;;;;;24.10;20.77;;;6.40;97.20;;;;;;1728349;28;20208;-79
2022/01/23 08:19:10;;;;;;;25.52;22.83;;;6.40;97.20;;;;;;1728468;28;20212;-80
2022/01/23 08:20:05;;;;;;;24.20;21.70;;;6.40;97.20;;;;;;1730111;28;20203;-80
2022/01/23 08:20:55;;;;;;;25.48;22.88;;;6.40;97.20;;;;;;1729749;28;20259;-79
2022/01/23 08:21:47;;;;;;;24.40;21.87;;;6.40;97.20;;;;;;1729772;28;20205;-81
2022/01/23 08:22:38;;;;;;;24.00;21.50;;;6.50;97.20;;;;;;1729421;28;20211;-80
2022/01/23 08:23:30;;;;;;;23.63;21.10;;;6.50;97.20;;;;;;1729356;28;20218;-81
2022/01/23 08:24:21;;;;;;;20.90;18.73;;;6.50;97.20;;;;;;1729405;28;20204;-80
2022/01/23 08:25:13;;;;;;;20.47;18.37;;;6.50;97.20;;;;;;1729258;28;20316;-79
2022/01/23 08:26:03;;;;;;;20.70;18.50;;;6.40;97.20;;;;;;1729506;28;20201;-81
2022/01/23 08:26:55;;;;;;;20.00;17.80;;;6.40;97.20;;;;;;1729112;28;20207;-80
2022/01/23 08:27:46;;;;;;;18.25;15.98;;;6.40;97.20;;;;;;1728786;28;20213;-79
2022/01/23 08:28:38;;;;;;;18.03;16.13;;;6.40;97.20;;;;;;1729049;28;20685;-80
2022/01/23 08:29:28;;;;;;;16.90;15.15;;;6.40;97.20;;;;;;1728884;28;20443;-80
2022/01/23 08:30:20;;;;;;;19.00;16.30;;;6.40;97.20;;;;;;1728789;28;20214;-80
2022/01/23 08:31:11;;;;;;;19.67;16.08;;;6.40;97.20;;;;;;1729151;28;20201;-81
2022/01/23 08:32:03;;;;;;;19.10;16.83;;;6.40;97.20;;;;;;1728957;28;20200;-79
2022/01/23 08:32:54;;;;;;;18.50;16.20;;;6.40;97.20;;;;;;1728649;28;20216;-80
2022/01/23 08:33:45;;;;;;;19.40;16.50;;;6.40;97.20;;;;;;1728347;28;20224;-80
2022/01/23 08:34:38;;;;;;;18.70;15.25;;;6.40;97.20;;;;;;1728808;28;20247;-81
2022/01/23 08:35:31;;;;;;;17.20;15.30;;;6.40;97.20;;;;;;1733834;28;20227;-80
2022/01/23 08:36:21;;;;;;;17.00;14.63;;;6.40;97.20;;;;;;1735647;28;20575;-81
2022/01/23 08:37:14;;;;;;;15.70;13.87;;;6.40;97.20;;;;;;1735353;28;20286;-80
2022/01/23 08:38:06;;;;;;;16.45;14.68;;;6.40;97.20;;;;;;1735244;28;20234;-81
2022/01/23 08:39:01;;;;;;;16.98;15.20;;;6.40;97.20;;;;;;1735532;28;20602;-81
2022/01/23 08:39:51;;;;;;;16.65;14.85;;;6.40;97.20;;;;;;1735365;28;20298;-81
2022/01/23 08:41:49;;;;;;;16.10;14.40;;;6.40;97.20;;;;;;1735103;28;20220;-80
2022/01/23 08:41:58;;;;;;;17.15;14.88;;;6.40;97.20;;;;;;1735233;28;20207;-81
2022/01/23 08:42:52;;;;;;;16.90;15.20;;;6.40;97.20;;;;;;1735481;28;20246;-80
2022/01/23 08:43:42;;;;;;;18.13;16.02;;;6.40;97.20;;;;;;1735574;28;20227;-81
2022/01/23 08:44:34;;;;;;;17.50;15.70;;;6.40;97.20;;;;;;1725542;28;20590;-81
2022/01/23 08:45:25;;;;;;;16.60;14.90;;;6.40;97.20;;;;;;1728498;28;20570;-81
2022/01/23 08:46:17;;;;;;;17.43;15.67;;;6.40;97.20;;;;;;1727925;28;20192;-81
2022/01/23 08:47:08;;;;;;;16.08;14.30;;;6.40;97.20;;;;;;1728464;28;20250;-81
2022/01/23 08:48:00;;;;;;;18.20;15.02;;;6.40;97.20;;;;;;1730860;28;20207;-81
2022/01/23 08:48:51;;;;;;;16.60;14.63;;;6.40;97.20;;;;;;1730794;28;20208;-83
2022/01/23 08:49:47;;;;;;;16.20;14.50;;;6.40;97.20;;;;;;1735729;28;20208;-83
2022/01/23 08:50:40;;;;;;;17.23;15.00;;;6.50;97.20;;;;;;1735438;28;20568;-82
2022/01/23 08:51:31;;;;;;;16.30;14.35;;;6.50;97.20;;;;;;1735188;28;20204;-82
2022/01/23 08:52:22;;;;;;;16.98;15.18;;;6.50;97.20;;;;;;1735081;28;20207;-84
2022/01/23 08:53:14;;;;;;;15.80;14.10;;;6.50;97.20;;;;;;1735186;28;20207;-85
2022/01/23 08:54:05;;;;;;;16.10;14.35;;;6.50;97.20;;;;;;1736062;28;20235;-83
2022/01/23 08:54:57;;;;;;;16.58;14.82;;;6.50;97.20;;;;;;1735806;28;20678;-84
2022/01/23 08:55:48;;;;;;;17.38;14.30;;;6.60;97.20;;;;;;1735366;28;20231;-83
2022/01/23 08:56:40;;;;;;;16.70;15.00;;;6.60;97.20;;;;;;1735180;28;20199;-84
2022/01/23 08:57:31;;;;;;;15.95;14.02;;;6.70;97.20;;;;;;1733546;28;20471;-85
2022/01/23 08:58:23;;;;;;;15.90;14.10;;;6.70;97.20;;;;;;1724285;28;20203;-84
2022/01/23 08:59:14;;;;;;;16.15;14.45;;;6.70;97.20;;;;;;1728195;28;20245;-83
2022/01/23 09:00:07;;;;;;;16.60;15.00;;;6.70;97.20;;;;;;1728213;28;20192;-83
2022/01/23 09:00:58;;;;;;;15.60;13.90;;;6.70;97.20;;;;;;1728421;28;20738;-83
2022/01/23 09:01:50;;;;;;;16.83;15.02;;;6.70;97.20;;;;;;1728303;28;20197;-82
2022/01/23 09:02:40;;;;;;;15.43;13.93;;;6.70;97.20;;;;;;1734207;28;20224;-83
2022/01/23 09:03:32;;;;;;;16.83;15.07;;;6.70;97.20;;;;;;1730812;28;20196;-82
2022/01/23 09:04:23;;;;;;;16.40;14.65;;;6.60;97.20;;;;;;1728207;28;20209;-83
2022/01/23 09:05:14;;;;;;;16.03;14.40;;;6.60;97.20;;;;;;1728322;28;20220;-81
2022/01/23 09:06:08;;;;;;;16.52;14.00;;;6.60;97.20;;;;;;1728237;28;20216;-82
2022/01/23 09:06:59;;;;;;;17.25;14.85;;;6.60;97.20;;;;;;1728516;28;20204;-82
2022/01/23 09:07:50;;;;;;;15.10;13.52;;;6.60;97.20;;;;;;1728339;28;20235;-83
2022/01/23 09:08:42;;;;;;;16.00;14.40;;;6.70;97.20;;;;;;1728272;28;20203;-80
2022/01/23 09:09:37;;;;;;;16.67;14.63;;;6.70;97.20;;;;;;1728248;28;20205;-85
2022/01/23 09:10:39;;;;;;;16.15;14.45;;;6.70;97.20;;;;;;1728636;28;20204;-82
2022/01/23 09:11:41;;;;;;;16.45;14.75;;;6.70;97.20;;;;;;1728095;28;20291;-84
2022/01/23 09:12:44;;;;;;;18.60;14.07;;;6.70;97.20;;;;;;1728319;28;20672;-83
2022/01/23 09:13:52;;;;;;;15.05;13.55;;;6.80;97.20;;;;;;1728151;28;20201;-83
2022/01/23 09:14:44;;;;;;;16.25;14.25;;;6.80;97.20;;;;;;1734433;28;20602;-83
2022/01/23 09:15:35;;;;;;;16.17;14.23;;;6.80;97.20;;;;;;1734933;28;20239;-82
2022/01/23 09:16:26;;;;;;;16.00;14.03;;;6.80;97.20;;;;;;1734805;28;20200;-85
2022/01/23 09:17:18;;;;;;;16.00;14.30;;;6.70;97.20;;;;;;1734903;28;20497;-85
2022/01/23 09:18:09;;;;;;;17.80;13.68;;;6.70;97.20;;;;;;1734697;28;20242;-84
2022/01/23 09:19:01;;;;;;;16.40;14.80;;;6.70;97.20;;;;;;1734893;28;20199;-84
2022/01/23 09:19:51;;;;;;;15.52;13.93;;;6.70;97.20;;;;;;1735189;28;20200;-82
2022/01/23 09:20:43;;;;;;;16.43;14.77;;;6.70;97.20;;;;;;1734974;28;20215;-83
2022/01/23 09:21:36;;;;;;;16.92;14.93;;;6.80;97.20;;;;;;1735230;28;20235;-83
2022/01/23 09:22:30;;;;;;;16.85;15.05;;;6.80;97.20;;;;;;1734836;28;20200;-84
2022/01/23 09:23:20;;;;;;;18.13;16.23;;;6.80;97.20;;;;;;1732273;28;20208;-84
2022/01/23 09:24:12;;;;;;;17.47;15.60;;;6.80;97.20;;;;;;1727949;28;20189;-84
2022/01/23 09:25:05;;;;;;;18.27;15.55;;;6.80;97.20;;;;;;1728002;28;20446;-85
2022/01/23 09:25:59;;;;;;;17.88;15.57;;;6.80;97.20;;;;;;1728105;28;20240;-84
2022/01/23 09:27:02;;;;;;;19.20;16.63;;;6.80;97.20;;;;;;1728203;28;20200;-84
2022/01/23 09:27:54;;;;;;;19.67;17.23;;;6.90;97.20;;;;;;1728026;28;20668;-82
2022/01/23 09:28:46;;;;;;;18.95;16.77;;;6.90;97.20;;;;;;1727798;28;20615;-83
2022/01/23 09:29:41;;;;;;;20.27;17.45;;;6.90;97.20;;;;;;1728515;28;20211;-81
2022/01/23 09:30:36;;;;;;;20.45;17.35;;;6.90;97.20;;;;;;1728578;28;20240;-82
2022/01/23 09:31:33;;;;;;;18.73;16.65;;;7.00;97.20;;;;;;1730656;28;20296;-84
2022/01/23 09:32:24;;;;;;;20.02;16.98;;;7.00;97.20;;;;;;1733482;28;20616;-85
2022/01/23 09:33:16;;;;;;;17.92;15.88;;;7.00;97.20;;;;;;1734526;28;20188;-85
2022/01/23 09:34:07;;;;;;;19.60;17.08;;;7.10;97.20;;;;;;1735582;28;20220;-83
2022/01/23 09:34:59;;;;;;;19.03;16.90;;;7.10;97.20;;;;;;1734827;28;20234;-84
2022/01/23 09:35:51;;;;;;;18.60;16.20;;;7.10;97.20;;;;;;1734968;28;20212;-83
2022/01/23 09:36:44;;;;;;;20.65;18.45;;;7.20;97.20;;;;;;1733923;28;20283;-82
2022/01/23 09:37:35;;;;;;;19.80;16.23;;;7.20;97.20;;;;;;1728161;28;20205;-83
2022/01/23 09:38:27;;;;;;;18.80;16.63;;;7.30;97.20;;;;;;1727983;28;20228;-83
2022/01/23 09:39:20;;;;;;;18.52;16.42;;;7.30;97.20;;;;;;1727778;28;21096;-83
2022/01/23 09:40:13;;;;;;;17.15;15.45;;;7.30;97.20;;;;;;1727826;28;20200;-82
2022/01/23 09:41:05;;;;;;;18.23;16.33;;;7.40;97.20;;;;;;1728122;28;20204;-82
2022/01/23 09:42:01;;;;;;;21.58;17.35;;;7.40;97.20;;;;;;1727191;28;20283;-83
2022/01/23 09:42:58;;;;;;;17.83;15.82;;;7.40;97.20;;;;;;1725317;28;20679;-83
2022/01/23 09:43:51;;;;;;;24.25;17.48;;;7.50;97.20;;;;;;1727884;28;20189;-81
2022/01/23 09:44:45;;;;;;;21.98;18.02;;;7.50;97.20;;;;;;1727923;28;20685;-81
2022/01/23 09:45:39;;;;;;;20.45;16.35;;;7.50;97.20;;;;;;1727824;28;20274;-83
2022/01/23 09:46:29;;;;;;;18.95;16.70;;;7.50;97.20;;;;;;1728392;28;20208;-82
2022/01/23 09:47:22;;;;;;;17.63;15.40;;;7.50;97.20;;;;;;1727939;28;20200;-83
2022/01/23 09:48:13;;;;;;;19.17;15.90;;;7.50;97.20;;;;;;1727523;28;20207;-82
2022/01/23 09:49:05;;;;;;;17.77;15.10;;;7.50;97.20;;;;;;1727885;28;20224;-83
2022/01/23 09:50:00;;;;;;;18.90;15.65;;;7.50;97.20;;;;;;1727926;28;20207;-83
2022/01/23 09:50:53;;;;;;;18.30;16.42;;;7.50;97.20;;;;;;1727803;28;20228;-83
2022/01/23 09:51:49;;;;;;;19.77;17.67;;;7.60;97.20;;;;;;1727593;28;20203;-82
2022/01/23 09:52:40;;;;;;;17.98;15.73;;;7.60;97.20;;;;;;1728261;28;20255;-82
2022/01/23 09:53:33;;;;;;;18.85;16.67;;;7.60;97.20;;;;;;1728310;28;20262;-81
2022/01/23 09:54:24;;;;;;;17.77;15.93;;;7.70;97.20;;;;;;1727983;28;20260;-82
2022/01/23 09:55:16;;;;;;;18.83;16.80;;;7.70;97.20;;;;;;1727984;28;20196;-81
2022/01/23 09:56:09;;;;;;;20.40;15.88;;;7.70;97.20;;;;;;1728029;28;20266;-82
2022/01/23 09:57:03;;;;;;;17.20;14.10;;;7.70;97.20;;;;;;1727812;28;20235;-82
2022/01/23 09:57:54;;;;;;;15.20;13.27;;;7.70;97.20;;;;;;1727819;28;20204;-82
2022/01/23 09:58:46;;;;;;;15.63;13.30;;;7.70;97.20;;;;;;1727997;28;20197;-82
2022/01/23 09:59:40;;;;;;;17.20;14.07;;;7.70;97.20;;;;;;1727924;28;20231;-82
2022/01/23 10:00:32;;;;;;;15.07;13.45;;;7.80;97.20;;;;;;1727300;28;20225;-81
2022/01/23 10:01:25;;;;;;;15.38;13.75;;;7.80;97.20;;;;;;1728101;28;20262;-81
2022/01/23 10:02:15;;;;;;;13.30;11.90;;;7.80;97.20;;;;;;1728228;28;20208;-81
2022/01/23 10:03:07;;;;;;;14.10;12.50;;;7.90;97.20;;;;;;1728337;28;20200;-81
2022/01/23 10:03:58;;;;;;;14.73;12.85;;;7.90;97.20;;;;;;1728308;28;20827;-81
2022/01/23 10:04:50;;;;;;;14.90;13.30;;;7.90;97.20;;;;;;1728106;28;20535;-81
2022/01/23 10:05:42;;;;;;;15.35;13.40;;;7.90;97.20;;;;;;1728088;28;20239;-80
2022/01/23 10:06:33;;;;;;;13.73;12.20;;;7.90;97.20;;;;;;1728005;28;20245;-80
2022/01/23 10:07:27;;;;;;;16.40;14.20;;;8.00;97.20;;;;;;1728493;28;20205;-81
2022/01/23 10:08:19;;;;;;;15.20;13.60;;;8.00;97.20;;;;;;1727686;28;20455;-81
2022/01/23 10:09:11;;;;;;;14.75;13.25;;;8.10;97.20;;;;;;1728000;28;20207;-80
2022/01/23 10:10:10;;;;;;;13.75;11.90;;;8.10;97.20;;;;;;1727939;28;20223;-80
2022/01/23 10:11:05;;;;;;;14.80;12.65;;;8.20;97.20;;;;;;1728042;28;20610;-80
2022/01/23 10:11:56;;;;;;;12.82;11.45;;;8.20;97.20;;;;;;1727932;28;20230;-80
2022/01/23 10:12:50;;;;;;;13.90;12.50;;;8.30;97.20;;;;;;1727907;28;20199;-80
2022/01/23 10:13:42;;;;;;;13.48;12.07;;;8.30;97.20;;;;;;1727632;28;20486;-81
2022/01/23 10:14:35;;;;;;;12.65;11.32;;;8.30;97.20;;;;;;1728079;28;20286;-80
2022/01/23 10:15:27;;;;;;;13.43;12.13;;;8.30;97.20;;;;;;1728043;28;20212;-80
2022/01/23 10:16:20;;;;;;;14.55;13.15;;;8.40;97.20;;;;;;1727587;28;20200;-80
2022/01/23 10:17:10;;;;;;;13.63;12.32;;;8.40;97.20;;;;;;1727995;28;20211;-81
2022/01/23 10:18:03;;;;;;;13.80;12.27;;;8.40;97.20;;;;;;1727443;28;20206;-81
2022/01/23 10:18:54;;;;;;;12.82;11.32;;;8.40;97.20;;;;;;1727775;28;20216;-79
2022/01/23 10:19:45;;;;;;;12.50;11.20;;;8.40;97.20;;;;;;1727970;28;20200;-81
2022/01/23 10:20:36;;;;;;;12.80;11.52;;;8.40;97.20;;;;;;1728104;28;20966;-81
2022/01/23 10:21:30;;;;;;;13.50;12.10;;;8.40;97.20;;;;;;1726938;28;20600;-81
2022/01/23 10:22:21;;;;;;;14.13;12.63;;;8.40;97.20;;;;;;1721202;28;20448;-81
2022/01/23 10:23:14;;;;;;;12.93;11.60;;;8.40;97.20;;;;;;1721019;28;20189;-80
2022/01/23 10:24:06;;;;;;;13.73;12.35;;;8.40;97.20;;;;;;1721046;28;20197;-81
2022/01/23 10:25:05;;;;;;;13.48;12.07;;;8.40;97.20;;;;;;1720990;28;20201;-82
2022/01/23 10:25:57;;;;;;;14.95;13.40;;;8.40;97.20;;;;;;1721043;28;20676;-80
2022/01/23 10:26:53;;;;;;;15.43;13.80;;;8.40;97.20;;;;;;1720994;28;20574;-81
2022/01/23 10:27:56;;;;;;;14.65;13.13;;;8.40;97.20;;;;;;1721041;28;20668;-81
2022/01/23 10:28:47;;;;;;;14.25;12.85;;;8.40;97.20;;;;;;1720778;28;20205;-80